sensor_id;sensor_type;location;lat;lon;timestamp;P1;durP1;ratioP1;P2;durP2;ratioP2
49730;SDS011;35622;52.008;5.426;2023-03-01T00:01:24;11.03;;;7.77;;
49730;SDS011;35622;52.008;5.426;2023-03-01T00:03:52;12.87;;;7.67;;
49730;SDS011;35622;52.008;5.426;2023-03-01T00:06:19;10.97;;;7.33;;
49730;SDS011;35622;52.008;5.426;2023-03-01T00:08:45;11.17;;;7.67;;
49730;SDS011;35622;52.008;5.426;2023-03-01T00:13:44;12.93;;;8.00;;
49730;SDS011;35622;52.008;5.426;2023-03-01T00:16:12;13.03;;;8.17;;
49730;SDS011;35622;52.008;5.426;2023-03-01T00:18:42;11.80;;;7.73;;
49730;SDS011;35622;52.008;5.426;2023-03-01T00:21:08;11.00;;;7.60;;
49730;SDS011;35622;52.008;5.426;2023-03-01T00:23:34;13.13;;;8.30;;
49730;SDS011;35622;52.008;5.426;2023-03-01T00:26:01;11.37;;;7.97;;
49730;SDS011;35622;52.008;5.426;2023-03-01T00:28:27;12.30;;;7.93;;
49730;SDS011;35622;52.008;5.426;2023-03-01T00:30:52;12.23;;;8.23;;
49730;SDS011;35622;52.008;5.426;2023-03-01T00:33:18;13.97;;;8.70;;
49730;SDS011;35622;52.008;5.426;2023-03-01T00:35:44;16.57;;;8.00;;
49730;SDS011;35622;52.008;5.426;2023-03-01T00:38:09;11.27;;;7.63;;
49730;SDS011;35622;52.008;5.426;2023-03-01T00:40:35;13.23;;;8.30;;
49730;SDS011;35622;52.008;5.426;2023-03-01T00:43:01;13.00;;;8.40;;
49730;SDS011;35622;52.008;5.426;2023-03-01T00:45:28;13.67;;;8.57;;
49730;SDS011;35622;52.008;5.426;2023-03-01T00:47:55;12.83;;;8.47;;
49730;SDS011;35622;52.008;5.426;2023-03-01T00:50:21;13.13;;;8.50;;
49730;SDS011;35622;52.008;5.426;2023-03-01T00:52:46;12.57;;;8.17;;
49730;SDS011;35622;52.008;5.426;2023-03-01T00:55:16;14.77;;;8.00;;
49730;SDS011;35622;52.008;5.426;2023-03-01T00:57:42;12.77;;;8.63;;
49730;SDS011;35622;52.008;5.426;2023-03-01T01:00:08;14.43;;;9.03;;
49730;SDS011;35622;52.008;5.426;2023-03-01T01:02:34;14.23;;;8.33;;
49730;SDS011;35622;52.008;5.426;2023-03-01T01:05:00;14.20;;;9.00;;
49730;SDS011;35622;52.008;5.426;2023-03-01T01:07:26;11.87;;;8.77;;
49730;SDS011;35622;52.008;5.426;2023-03-01T01:09:51;12.80;;;9.23;;
49730;SDS011;35622;52.008;5.426;2023-03-01T01:12:17;12.40;;;8.43;;
49730;SDS011;35622;52.008;5.426;2023-03-01T01:14:42;14.77;;;9.77;;
49730;SDS011;35622;52.008;5.426;2023-03-01T01:17:08;15.13;;;8.70;;
49730;SDS011;35622;52.008;5.426;2023-03-01T01:19:33;12.23;;;8.33;;
49730;SDS011;35622;52.008;5.426;2023-03-01T01:21:59;12.43;;;8.53;;
49730;SDS011;35622;52.008;5.426;2023-03-01T01:24:25;16.00;;;9.13;;
49730;SDS011;35622;52.008;5.426;2023-03-01T01:26:50;12.00;;;8.50;;
49730;SDS011;35622;52.008;5.426;2023-03-01T01:29:16;12.93;;;8.77;;
49730;SDS011;35622;52.008;5.426;2023-03-01T01:31:43;13.87;;;9.40;;
49730;SDS011;35622;52.008;5.426;2023-03-01T01:34:12;13.33;;;8.80;;
49730;SDS011;35622;52.008;5.426;2023-03-01T01:36:42;13.90;;;9.23;;
49730;SDS011;35622;52.008;5.426;2023-03-01T01:39:08;14.17;;;8.73;;
49730;SDS011;35622;52.008;5.426;2023-03-01T01:41:38;12.70;;;9.00;;
49730;SDS011;35622;52.008;5.426;2023-03-01T01:46:56;15.53;;;8.60;;
49730;SDS011;35622;52.008;5.426;2023-03-01T01:49:41;14.53;;;9.33;;
49730;SDS011;35622;52.008;5.426;2023-03-01T01:52:20;12.73;;;9.00;;
49730;SDS011;35622;52.008;5.426;2023-03-01T01:55:06;14.50;;;8.83;;
49730;SDS011;35622;52.008;5.426;2023-03-01T01:57:46;18.43;;;10.37;;
49730;SDS011;35622;52.008;5.426;2023-03-01T02:00:22;15.03;;;9.10;;
49730;SDS011;35622;52.008;5.426;2023-03-01T02:02:50;12.83;;;8.30;;
49730;SDS011;35622;52.008;5.426;2023-03-01T02:05:22;14.60;;;9.40;;
49730;SDS011;35622;52.008;5.426;2023-03-01T02:07:53;14.83;;;9.17;;
49730;SDS011;35622;52.008;5.426;2023-03-01T02:10:21;13.90;;;9.03;;
49730;SDS011;35622;52.008;5.426;2023-03-01T02:12:48;13.47;;;9.07;;
49730;SDS011;35622;52.008;5.426;2023-03-01T02:15:14;15.37;;;9.30;;
49730;SDS011;35622;52.008;5.426;2023-03-01T02:17:40;15.43;;;9.37;;
49730;SDS011;35622;52.008;5.426;2023-03-01T02:20:17;14.23;;;9.27;;
49730;SDS011;35622;52.008;5.426;2023-03-01T02:22:50;13.60;;;9.17;;
49730;SDS011;35622;52.008;5.426;2023-03-01T02:25:21;14.53;;;9.23;;
49730;SDS011;35622;52.008;5.426;2023-03-01T02:30:40;12.30;;;8.47;;
49730;SDS011;35622;52.008;5.426;2023-03-01T02:33:27;17.20;;;9.87;;
49730;SDS011;35622;52.008;5.426;2023-03-01T02:35:57;14.67;;;8.77;;
49730;SDS011;35622;52.008;5.426;2023-03-01T02:38:28;12.63;;;8.80;;
49730;SDS011;35622;52.008;5.426;2023-03-01T02:40:54;14.53;;;9.20;;
49730;SDS011;35622;52.008;5.426;2023-03-01T02:43:20;13.57;;;9.20;;
49730;SDS011;35622;52.008;5.426;2023-03-01T02:45:51;13.50;;;9.10;;
49730;SDS011;35622;52.008;5.426;2023-03-01T02:48:17;15.87;;;8.77;;
49730;SDS011;35622;52.008;5.426;2023-03-01T02:53:55;11.27;;;8.20;;
49730;SDS011;35622;52.008;5.426;2023-03-01T02:56:29;14.23;;;9.60;;
49730;SDS011;35622;52.008;5.426;2023-03-01T02:58:55;14.27;;;9.40;;
49730;SDS011;35622;52.008;5.426;2023-03-01T03:01:25;13.67;;;9.50;;
49730;SDS011;35622;52.008;5.426;2023-03-01T03:04:05;16.57;;;9.70;;
49730;SDS011;35622;52.008;5.426;2023-03-01T03:06:32;15.63;;;9.47;;
49730;SDS011;35622;52.008;5.426;2023-03-01T03:08:58;15.03;;;9.73;;
49730;SDS011;35622;52.008;5.426;2023-03-01T03:11:24;15.33;;;9.57;;
49730;SDS011;35622;52.008;5.426;2023-03-01T03:13:50;15.17;;;9.00;;
49730;SDS011;35622;52.008;5.426;2023-03-01T03:16:17;14.30;;;9.17;;
49730;SDS011;35622;52.008;5.426;2023-03-01T03:18:43;13.17;;;9.13;;
49730;SDS011;35622;52.008;5.426;2023-03-01T03:21:09;14.53;;;9.40;;
49730;SDS011;35622;52.008;5.426;2023-03-01T03:23:36;16.40;;;10.23;;
49730;SDS011;35622;52.008;5.426;2023-03-01T03:26:02;15.83;;;9.90;;
49730;SDS011;35622;52.008;5.426;2023-03-01T03:28:29;16.93;;;9.73;;
49730;SDS011;35622;52.008;5.426;2023-03-01T03:30:58;14.43;;;9.87;;
49730;SDS011;35622;52.008;5.426;2023-03-01T03:33:28;15.37;;;10.27;;
49730;SDS011;35622;52.008;5.426;2023-03-01T03:35:56;18.53;;;9.40;;
49730;SDS011;35622;52.008;5.426;2023-03-01T03:38:22;14.70;;;9.70;;
49730;SDS011;35622;52.008;5.426;2023-03-01T03:40:49;16.37;;;9.90;;
49730;SDS011;35622;52.008;5.426;2023-03-01T03:43:17;16.13;;;10.70;;
49730;SDS011;35622;52.008;5.426;2023-03-01T03:45:45;15.07;;;10.07;;
49730;SDS011;35622;52.008;5.426;2023-03-01T03:48:11;14.50;;;9.83;;
49730;SDS011;35622;52.008;5.426;2023-03-01T03:50:40;16.03;;;9.87;;
49730;SDS011;35622;52.008;5.426;2023-03-01T03:53:08;16.83;;;9.40;;
49730;SDS011;35622;52.008;5.426;2023-03-01T03:55:35;16.00;;;9.50;;
49730;SDS011;35622;52.008;5.426;2023-03-01T03:58:04;16.70;;;10.27;;
49730;SDS011;35622;52.008;5.426;2023-03-01T04:00:43;14.90;;;9.90;;
49730;SDS011;35622;52.008;5.426;2023-03-01T04:03:09;16.43;;;10.13;;
49730;SDS011;35622;52.008;5.426;2023-03-01T04:05:37;15.03;;;9.63;;
49730;SDS011;35622;52.008;5.426;2023-03-01T04:08:03;16.40;;;10.47;;
49730;SDS011;35622;52.008;5.426;2023-03-01T04:13:05;17.27;;;10.50;;
49730;SDS011;35622;52.008;5.426;2023-03-01T04:15:32;15.53;;;10.03;;
49730;SDS011;35622;52.008;5.426;2023-03-01T04:17:58;20.60;;;10.67;;
49730;SDS011;35622;52.008;5.426;2023-03-01T04:20:25;15.13;;;10.27;;
49730;SDS011;35622;52.008;5.426;2023-03-01T04:22:59;18.60;;;10.27;;
49730;SDS011;35622;52.008;5.426;2023-03-01T04:25:37;18.57;;;10.80;;
49730;SDS011;35622;52.008;5.426;2023-03-01T04:28:03;17.27;;;10.10;;
49730;SDS011;35622;52.008;5.426;2023-03-01T04:30:29;20.67;;;10.53;;
49730;SDS011;35622;52.008;5.426;2023-03-01T04:33:00;17.27;;;10.23;;
49730;SDS011;35622;52.008;5.426;2023-03-01T04:35:30;16.53;;;10.50;;
49730;SDS011;35622;52.008;5.426;2023-03-01T04:37:56;16.50;;;11.00;;
49730;SDS011;35622;52.008;5.426;2023-03-01T04:40:21;16.40;;;10.27;;
49730;SDS011;35622;52.008;5.426;2023-03-01T04:42:47;18.80;;;11.50;;
49730;SDS011;35622;52.008;5.426;2023-03-01T04:45:13;16.97;;;10.23;;
49730;SDS011;35622;52.008;5.426;2023-03-01T04:47:39;18.30;;;10.77;;
49730;SDS011;35622;52.008;5.426;2023-03-01T04:50:05;19.50;;;11.80;;
49730;SDS011;35622;52.008;5.426;2023-03-01T04:52:32;22.80;;;11.10;;
49730;SDS011;35622;52.008;5.426;2023-03-01T04:54:57;19.20;;;11.30;;
49730;SDS011;35622;52.008;5.426;2023-03-01T04:57:23;20.07;;;11.03;;
49730;SDS011;35622;52.008;5.426;2023-03-01T04:59:48;18.47;;;10.27;;
49730;SDS011;35622;52.008;5.426;2023-03-01T05:02:14;17.27;;;10.50;;
49730;SDS011;35622;52.008;5.426;2023-03-01T05:04:39;22.47;;;11.53;;
49730;SDS011;35622;52.008;5.426;2023-03-01T05:07:05;17.93;;;10.70;;
49730;SDS011;35622;52.008;5.426;2023-03-01T05:09:30;25.97;;;11.10;;
49730;SDS011;35622;52.008;5.426;2023-03-01T05:11:56;20.27;;;11.77;;
49730;SDS011;35622;52.008;5.426;2023-03-01T05:14:21;16.87;;;10.13;;
49730;SDS011;35622;52.008;5.426;2023-03-01T05:16:47;18.97;;;11.13;;
49730;SDS011;35622;52.008;5.426;2023-03-01T05:19:13;19.53;;;11.10;;
49730;SDS011;35622;52.008;5.426;2023-03-01T05:21:40;21.43;;;11.57;;
49730;SDS011;35622;52.008;5.426;2023-03-01T05:24:25;18.07;;;11.87;;
49730;SDS011;35622;52.008;5.426;2023-03-01T05:26:51;15.03;;;10.47;;
49730;SDS011;35622;52.008;5.426;2023-03-01T05:29:18;17.47;;;10.60;;
49730;SDS011;35622;52.008;5.426;2023-03-01T05:31:49;17.97;;;10.90;;
49730;SDS011;35622;52.008;5.426;2023-03-01T05:34:26;20.47;;;11.73;;
49730;SDS011;35622;52.008;5.426;2023-03-01T05:36:53;20.10;;;10.87;;
49730;SDS011;35622;52.008;5.426;2023-03-01T05:39:23;19.30;;;11.57;;
49730;SDS011;35622;52.008;5.426;2023-03-01T05:41:57;22.47;;;11.63;;
49730;SDS011;35622;52.008;5.426;2023-03-01T05:44:24;19.57;;;11.33;;
49730;SDS011;35622;52.008;5.426;2023-03-01T05:46:51;22.50;;;12.13;;
49730;SDS011;35622;52.008;5.426;2023-03-01T05:49:17;18.17;;;10.97;;
49730;SDS011;35622;52.008;5.426;2023-03-01T05:51:43;19.43;;;12.10;;
49730;SDS011;35622;52.008;5.426;2023-03-01T05:54:13;20.43;;;11.53;;
49730;SDS011;35622;52.008;5.426;2023-03-01T05:56:38;20.77;;;12.03;;
49730;SDS011;35622;52.008;5.426;2023-03-01T05:59:04;18.73;;;11.73;;
49730;SDS011;35622;52.008;5.426;2023-03-01T06:01:30;15.13;;;10.53;;
49730;SDS011;35622;52.008;5.426;2023-03-01T06:03:57;17.17;;;10.43;;
49730;SDS011;35622;52.008;5.426;2023-03-01T06:06:23;15.27;;;10.80;;
49730;SDS011;35622;52.008;5.426;2023-03-01T06:08:49;19.10;;;10.67;;
49730;SDS011;35622;52.008;5.426;2023-03-01T06:11:14;21.80;;;11.67;;
49730;SDS011;35622;52.008;5.426;2023-03-01T06:13:41;17.50;;;11.43;;
49730;SDS011;35622;52.008;5.426;2023-03-01T06:18:53;21.80;;;11.60;;
49730;SDS011;35622;52.008;5.426;2023-03-01T06:21:18;17.87;;;11.40;;
49730;SDS011;35622;52.008;5.426;2023-03-01T06:23:44;19.57;;;11.27;;
49730;SDS011;35622;52.008;5.426;2023-03-01T06:26:09;18.20;;;10.97;;
49730;SDS011;35622;52.008;5.426;2023-03-01T06:28:36;17.70;;;11.40;;
49730;SDS011;35622;52.008;5.426;2023-03-01T06:31:02;23.63;;;11.87;;
49730;SDS011;35622;52.008;5.426;2023-03-01T06:33:28;19.27;;;10.57;;
49730;SDS011;35622;52.008;5.426;2023-03-01T06:35:56;16.67;;;10.63;;
49730;SDS011;35622;52.008;5.426;2023-03-01T06:38:22;17.93;;;10.87;;
49730;SDS011;35622;52.008;5.426;2023-03-01T06:40:52;18.27;;;10.53;;
49730;SDS011;35622;52.008;5.426;2023-03-01T06:43:19;18.27;;;11.83;;
49730;SDS011;35622;52.008;5.426;2023-03-01T06:45:45;20.90;;;12.10;;
49730;SDS011;35622;52.008;5.426;2023-03-01T06:48:10;16.60;;;11.20;;
49730;SDS011;35622;52.008;5.426;2023-03-01T06:50:36;19.30;;;11.23;;
49730;SDS011;35622;52.008;5.426;2023-03-01T06:53:02;20.13;;;11.50;;
49730;SDS011;35622;52.008;5.426;2023-03-01T06:55:28;17.93;;;11.50;;
49730;SDS011;35622;52.008;5.426;2023-03-01T06:57:58;19.40;;;12.77;;
49730;SDS011;35622;52.008;5.426;2023-03-01T07:00:24;18.17;;;11.80;;
49730;SDS011;35622;52.008;5.426;2023-03-01T07:02:51;17.50;;;11.07;;
49730;SDS011;35622;52.008;5.426;2023-03-01T07:05:17;23.03;;;11.50;;
49730;SDS011;35622;52.008;5.426;2023-03-01T07:07:42;18.00;;;12.30;;
49730;SDS011;35622;52.008;5.426;2023-03-01T07:10:08;17.27;;;11.20;;
49730;SDS011;35622;52.008;5.426;2023-03-01T07:12:34;23.63;;;12.17;;
49730;SDS011;35622;52.008;5.426;2023-03-01T07:15:00;17.43;;;11.37;;
49730;SDS011;35622;52.008;5.426;2023-03-01T07:17:26;18.23;;;11.53;;
49730;SDS011;35622;52.008;5.426;2023-03-01T07:19:51;16.50;;;11.33;;
49730;SDS011;35622;52.008;5.426;2023-03-01T07:22:17;22.07;;;12.30;;
49730;SDS011;35622;52.008;5.426;2023-03-01T07:24:43;19.07;;;11.93;;
49730;SDS011;35622;52.008;5.426;2023-03-01T07:33:52;17.00;;;11.10;;
49730;SDS011;35622;52.008;5.426;2023-03-01T07:36:18;18.63;;;10.80;;
49730;SDS011;35622;52.008;5.426;2023-03-01T07:42:12;15.93;;;11.20;;
49730;SDS011;35622;52.008;5.426;2023-03-01T07:44:38;16.57;;;10.40;;
49730;SDS011;35622;52.008;5.426;2023-03-01T07:47:06;14.80;;;10.20;;
49730;SDS011;35622;52.008;5.426;2023-03-01T07:49:32;16.77;;;11.23;;
49730;SDS011;35622;52.008;5.426;2023-03-01T07:51:58;14.47;;;10.03;;
49730;SDS011;35622;52.008;5.426;2023-03-01T07:54:25;13.23;;;10.33;;
49730;SDS011;35622;52.008;5.426;2023-03-01T07:56:51;14.27;;;9.90;;
49730;SDS011;35622;52.008;5.426;2023-03-01T07:59:19;13.87;;;10.23;;
49730;SDS011;35622;52.008;5.426;2023-03-01T08:01:46;15.10;;;10.40;;
49730;SDS011;35622;52.008;5.426;2023-03-01T08:04:12;12.82;;;10.18;;
49730;SDS011;35622;52.008;5.426;2023-03-01T08:06:37;13.55;;;11.00;;
49730;SDS011;35622;52.008;5.426;2023-03-01T08:09:03;13.15;;;10.65;;
49730;SDS011;35622;52.008;5.426;2023-03-01T08:11:29;14.10;;;11.27;;
49730;SDS011;35622;52.008;5.426;2023-03-01T08:13:55;14.20;;;11.57;;
49730;SDS011;35622;52.008;5.426;2023-03-01T08:16:21;14.73;;;11.13;;
49730;SDS011;35622;52.008;5.426;2023-03-01T08:18:48;13.57;;;11.63;;
49730;SDS011;35622;52.008;5.426;2023-03-01T08:21:14;17.55;;;11.15;;
49730;SDS011;35622;52.008;5.426;2023-03-01T08:23:41;13.15;;;10.50;;
49730;SDS011;35622;52.008;5.426;2023-03-01T08:26:12;13.30;;;10.90;;
49730;SDS011;35622;52.008;5.426;2023-03-01T08:28:39;12.63;;;10.73;;
49730;SDS011;35622;52.008;5.426;2023-03-01T08:33:42;14.60;;;10.93;;
49730;SDS011;35622;52.008;5.426;2023-03-01T08:36:08;11.75;;;10.13;;
49730;SDS011;35622;52.008;5.426;2023-03-01T08:38:34;11.20;;;9.60;;
49730;SDS011;35622;52.008;5.426;2023-03-01T08:41:00;12.85;;;10.18;;
49730;SDS011;35622;52.008;5.426;2023-03-01T08:43:28;12.35;;;10.55;;
49730;SDS011;35622;52.008;5.426;2023-03-01T08:45:53;12.02;;;9.27;;
49730;SDS011;35622;52.008;5.426;2023-03-01T08:48:19;9.75;;;8.75;;
49730;SDS011;35622;52.008;5.426;2023-03-01T08:50:44;11.05;;;9.02;;
49730;SDS011;35622;52.008;5.426;2023-03-01T08:53:10;11.70;;;9.30;;
49730;SDS011;35622;52.008;5.426;2023-03-01T08:55:36;10.15;;;8.55;;
49730;SDS011;35622;52.008;5.426;2023-03-01T08:58:01;10.00;;;8.65;;
49730;SDS011;35622;52.008;5.426;2023-03-01T09:00:27;11.68;;;8.38;;
49730;SDS011;35622;52.008;5.426;2023-03-01T09:06:15;10.55;;;8.32;;
49730;SDS011;35622;52.008;5.426;2023-03-01T09:08:42;9.25;;;8.23;;
49730;SDS011;35622;52.008;5.426;2023-03-01T09:11:10;9.48;;;8.15;;
49730;SDS011;35622;52.008;5.426;2023-03-01T09:13:37;9.23;;;8.25;;
49730;SDS011;35622;52.008;5.426;2023-03-01T09:16:04;8.88;;;7.97;;
49730;SDS011;35622;52.008;5.426;2023-03-01T09:18:31;10.48;;;8.70;;
49730;SDS011;35622;52.008;5.426;2023-03-01T09:21:04;9.82;;;8.20;;
49730;SDS011;35622;52.008;5.426;2023-03-01T09:23:39;8.88;;;7.97;;
49730;SDS011;35622;52.008;5.426;2023-03-01T09:26:06;9.70;;;8.70;;
49730;SDS011;35622;52.008;5.426;2023-03-01T09:28:36;10.23;;;7.78;;
49730;SDS011;35622;52.008;5.426;2023-03-01T09:31:02;9.18;;;8.02;;
49730;SDS011;35622;52.008;5.426;2023-03-01T09:33:29;9.55;;;8.55;;
49730;SDS011;35622;52.008;5.426;2023-03-01T09:36:00;11.13;;;8.02;;
49730;SDS011;35622;52.008;5.426;2023-03-01T09:38:27;7.10;;;6.40;;
49730;SDS011;35622;52.008;5.426;2023-03-01T09:40:53;8.05;;;6.32;;
49730;SDS011;35622;52.008;5.426;2023-03-01T09:46:08;7.78;;;6.30;;
49730;SDS011;35622;52.008;5.426;2023-03-01T09:48:41;7.43;;;6.43;;
49730;SDS011;35622;52.008;5.426;2023-03-01T09:51:32;8.48;;;6.78;;
49730;SDS011;35622;52.008;5.426;2023-03-01T09:53:58;8.15;;;6.35;;
49730;SDS011;35622;52.008;5.426;2023-03-01T10:01:41;7.82;;;6.35;;
49730;SDS011;35622;52.008;5.426;2023-03-01T10:04:46;7.60;;;5.53;;
49730;SDS011;35622;52.008;5.426;2023-03-01T10:09:50;6.47;;;4.95;;
49730;SDS011;35622;52.008;5.426;2023-03-01T10:15:11;5.63;;;4.20;;
49730;SDS011;35622;52.008;5.426;2023-03-01T10:20:22;6.25;;;4.70;;
49730;SDS011;35622;52.008;5.426;2023-03-01T10:22:50;4.68;;;4.25;;
49730;SDS011;35622;52.008;5.426;2023-03-01T10:25:26;5.15;;;4.40;;
49730;SDS011;35622;52.008;5.426;2023-03-01T10:30:47;6.57;;;4.47;;
49730;SDS011;35622;52.008;5.426;2023-03-01T10:33:29;5.22;;;4.30;;
49730;SDS011;35622;52.008;5.426;2023-03-01T10:35:59;4.68;;;3.97;;
49730;SDS011;35622;52.008;5.426;2023-03-01T10:38:24;6.40;;;3.95;;
49730;SDS011;35622;52.008;5.426;2023-03-01T10:43:20;5.45;;;3.65;;
49730;SDS011;35622;52.008;5.426;2023-03-01T10:45:47;5.10;;;3.58;;
49730;SDS011;35622;52.008;5.426;2023-03-01T10:51:05;4.45;;;3.42;;
49730;SDS011;35622;52.008;5.426;2023-03-01T10:53:35;5.03;;;3.65;;
49730;SDS011;35622;52.008;5.426;2023-03-01T10:56:12;4.93;;;3.22;;
49730;SDS011;35622;52.008;5.426;2023-03-01T10:58:40;5.40;;;3.50;;
49730;SDS011;35622;52.008;5.426;2023-03-01T11:03:54;4.95;;;3.80;;
49730;SDS011;35622;52.008;5.426;2023-03-01T11:06:37;4.60;;;3.45;;
49730;SDS011;35622;52.008;5.426;2023-03-01T11:09:17;6.20;;;3.80;;
49730;SDS011;35622;52.008;5.426;2023-03-01T11:11:52;5.95;;;3.65;;
49730;SDS011;35622;52.008;5.426;2023-03-01T11:14:20;6.35;;;3.67;;
49730;SDS011;35622;52.008;5.426;2023-03-01T11:16:49;6.30;;;3.78;;
49730;SDS011;35622;52.008;5.426;2023-03-01T11:19:25;5.75;;;3.80;;
49730;SDS011;35622;52.008;5.426;2023-03-01T11:22:05;7.43;;;3.63;;
49730;SDS011;35622;52.008;5.426;2023-03-01T11:27:03;4.68;;;3.22;;
49730;SDS011;35622;52.008;5.426;2023-03-01T11:29:40;5.93;;;3.35;;
49730;SDS011;35622;52.008;5.426;2023-03-01T11:32:10;4.82;;;3.20;;
49730;SDS011;35622;52.008;5.426;2023-03-01T11:34:47;3.88;;;2.90;;
49730;SDS011;35622;52.008;5.426;2023-03-01T11:40:29;4.47;;;3.47;;
49730;SDS011;35622;52.008;5.426;2023-03-01T11:51:00;5.32;;;4.03;;
49730;SDS011;35622;52.008;5.426;2023-03-01T11:56:32;6.35;;;4.03;;
49730;SDS011;35622;52.008;5.426;2023-03-01T12:05:08;6.50;;;4.32;;
49730;SDS011;35622;52.008;5.426;2023-03-01T12:07:46;6.32;;;4.10;;
49730;SDS011;35622;52.008;5.426;2023-03-01T12:10:44;4.88;;;3.85;;
49730;SDS011;35622;52.008;5.426;2023-03-01T12:19:41;4.43;;;3.83;;
49730;SDS011;35622;52.008;5.426;2023-03-01T12:33:45;5.85;;;4.10;;
49730;SDS011;35622;52.008;5.426;2023-03-01T12:36:35;5.60;;;3.92;;
49730;SDS011;35622;52.008;5.426;2023-03-01T12:39:17;4.65;;;3.80;;
49730;SDS011;35622;52.008;5.426;2023-03-01T12:42:02;7.78;;;4.53;;
49730;SDS011;35622;52.008;5.426;2023-03-01T12:44:55;5.25;;;4.28;;
49730;SDS011;35622;52.008;5.426;2023-03-01T12:50:23;6.95;;;4.38;;
49730;SDS011;35622;52.008;5.426;2023-03-01T12:55:44;4.75;;;3.80;;
49730;SDS011;35622;52.008;5.426;2023-03-01T13:00:58;5.70;;;4.13;;
49730;SDS011;35622;52.008;5.426;2023-03-01T13:03:43;5.75;;;4.10;;
49730;SDS011;35622;52.008;5.426;2023-03-01T13:09:19;5.68;;;3.90;;
49730;SDS011;35622;52.008;5.426;2023-03-01T13:17:51;6.43;;;4.80;;
49730;SDS011;35622;52.008;5.426;2023-03-01T13:20:31;8.43;;;4.68;;
49730;SDS011;35622;52.008;5.426;2023-03-01T13:23:08;9.25;;;5.38;;
49730;SDS011;35622;52.008;5.426;2023-03-01T13:28:56;7.90;;;4.60;;
49730;SDS011;35622;52.008;5.426;2023-03-01T13:33:53;7.53;;;3.83;;
49730;SDS011;35622;52.008;5.426;2023-03-01T13:38:57;5.38;;;3.88;;
49730;SDS011;35622;52.008;5.426;2023-03-01T13:44:50;6.05;;;4.00;;
49730;SDS011;35622;52.008;5.426;2023-03-01T13:49:47;5.00;;;3.97;;
49730;SDS011;35622;52.008;5.426;2023-03-01T13:52:36;6.13;;;4.22;;
49730;SDS011;35622;52.008;5.426;2023-03-01T13:57:39;6.93;;;3.78;;
49730;SDS011;35622;52.008;5.426;2023-03-01T14:00:31;6.20;;;4.18;;
49730;SDS011;35622;52.008;5.426;2023-03-01T14:02:59;5.03;;;3.42;;
49730;SDS011;35622;52.008;5.426;2023-03-01T14:05:28;5.90;;;3.92;;
49730;SDS011;35622;52.008;5.426;2023-03-01T14:07:55;5.97;;;3.55;;
49730;SDS011;35622;52.008;5.426;2023-03-01T14:10:20;6.25;;;4.30;;
49730;SDS011;35622;52.008;5.426;2023-03-01T14:12:49;5.38;;;3.65;;
49730;SDS011;35622;52.008;5.426;2023-03-01T14:15:33;6.10;;;3.50;;
49730;SDS011;35622;52.008;5.426;2023-03-01T14:18:12;4.57;;;3.42;;
49730;SDS011;35622;52.008;5.426;2023-03-01T14:20:45;6.32;;;3.83;;
49730;SDS011;35622;52.008;5.426;2023-03-01T14:23:17;4.97;;;3.28;;
49730;SDS011;35622;52.008;5.426;2023-03-01T14:25:48;6.22;;;3.72;;
49730;SDS011;35622;52.008;5.426;2023-03-01T14:28:18;5.18;;;3.60;;
49730;SDS011;35622;52.008;5.426;2023-03-01T14:30:55;4.30;;;3.22;;
49730;SDS011;35622;52.008;5.426;2023-03-01T14:33:24;6.10;;;3.78;;
49730;SDS011;35622;52.008;5.426;2023-03-01T14:36:11;5.43;;;3.72;;
49730;SDS011;35622;52.008;5.426;2023-03-01T14:41:16;5.50;;;3.67;;
49730;SDS011;35622;52.008;5.426;2023-03-01T14:43:52;6.20;;;3.65;;
49730;SDS011;35622;52.008;5.426;2023-03-01T14:46:33;5.93;;;3.88;;
49730;SDS011;35622;52.008;5.426;2023-03-01T14:51:36;5.25;;;3.65;;
49730;SDS011;35622;52.008;5.426;2023-03-01T14:54:04;5.95;;;3.60;;
49730;SDS011;35622;52.008;5.426;2023-03-01T14:56:45;4.60;;;3.50;;
49730;SDS011;35622;52.008;5.426;2023-03-01T14:59:11;5.60;;;3.55;;
49730;SDS011;35622;52.008;5.426;2023-03-01T15:01:37;5.30;;;3.95;;
49730;SDS011;35622;52.008;5.426;2023-03-01T15:04:04;6.35;;;3.65;;
49730;SDS011;35622;52.008;5.426;2023-03-01T15:06:30;6.80;;;4.03;;
49730;SDS011;35622;52.008;5.426;2023-03-01T15:08:56;7.53;;;3.90;;
49730;SDS011;35622;52.008;5.426;2023-03-01T15:11:24;5.93;;;3.80;;
49730;SDS011;35622;52.008;5.426;2023-03-01T15:13:53;6.05;;;3.63;;
49730;SDS011;35622;52.008;5.426;2023-03-01T15:16:23;5.78;;;4.05;;
49730;SDS011;35622;52.008;5.426;2023-03-01T15:18:55;6.43;;;3.45;;
49730;SDS011;35622;52.008;5.426;2023-03-01T15:21:28;6.10;;;3.60;;
49730;SDS011;35622;52.008;5.426;2023-03-01T15:23:58;6.72;;;3.70;;
49730;SDS011;35622;52.008;5.426;2023-03-01T15:26:44;5.05;;;3.65;;
49730;SDS011;35622;52.008;5.426;2023-03-01T15:29:20;6.07;;;3.67;;
49730;SDS011;35622;52.008;5.426;2023-03-01T15:32:48;5.70;;;3.40;;
49730;SDS011;35622;52.008;5.426;2023-03-01T15:34:53;5.60;;;3.92;;
49730;SDS011;35622;52.008;5.426;2023-03-01T15:37:37;5.93;;;3.25;;
49730;SDS011;35622;52.008;5.426;2023-03-01T15:40:18;5.80;;;3.60;;
49730;SDS011;35622;52.008;5.426;2023-03-01T15:42:44;5.75;;;3.45;;
49730;SDS011;35622;52.008;5.426;2023-03-01T15:47:43;5.40;;;3.03;;
49730;SDS011;35622;52.008;5.426;2023-03-01T15:50:23;7.15;;;3.45;;
49730;SDS011;35622;52.008;5.426;2023-03-01T15:52:52;4.95;;;3.22;;
49730;SDS011;35622;52.008;5.426;2023-03-01T15:55:20;5.55;;;3.40;;
49730;SDS011;35622;52.008;5.426;2023-03-01T15:57:58;6.50;;;3.53;;
49730;SDS011;35622;52.008;5.426;2023-03-01T16:00:29;7.95;;;5.47;;
49730;SDS011;35622;52.008;5.426;2023-03-01T16:02:54;4.85;;;3.10;;
49730;SDS011;35622;52.008;5.426;2023-03-01T16:05:22;5.53;;;3.70;;
49730;SDS011;35622;52.008;5.426;2023-03-01T16:07:55;4.72;;;3.50;;
49730;SDS011;35622;52.008;5.426;2023-03-01T16:10:21;5.32;;;3.03;;
49730;SDS011;35622;52.008;5.426;2023-03-01T16:12:48;5.45;;;3.58;;
49730;SDS011;35622;52.008;5.426;2023-03-01T16:15:19;7.07;;;3.22;;
49730;SDS011;35622;52.008;5.426;2023-03-01T16:17:55;6.05;;;3.05;;
49730;SDS011;35622;52.008;5.426;2023-03-01T16:20:23;7.50;;;3.22;;
49730;SDS011;35622;52.008;5.426;2023-03-01T16:22:50;5.60;;;3.70;;
49730;SDS011;35622;52.008;5.426;2023-03-01T16:25:17;5.40;;;3.40;;
49730;SDS011;35622;52.008;5.426;2023-03-01T16:27:50;11.07;;;7.57;;
49730;SDS011;35622;52.008;5.426;2023-03-01T16:30:18;10.47;;;7.53;;
49730;SDS011;35622;52.008;5.426;2023-03-01T16:32:45;6.95;;;3.78;;
49730;SDS011;35622;52.008;5.426;2023-03-01T16:35:13;7.53;;;4.53;;
49730;SDS011;35622;52.008;5.426;2023-03-01T16:37:40;5.63;;;3.75;;
49730;SDS011;35622;52.008;5.426;2023-03-01T16:40:07;6.63;;;3.92;;
49730;SDS011;35622;52.008;5.426;2023-03-01T16:42:45;7.45;;;3.70;;
49730;SDS011;35622;52.008;5.426;2023-03-01T16:45:15;6.55;;;4.30;;
49730;SDS011;35622;52.008;5.426;2023-03-01T16:47:41;7.05;;;4.45;;
49730;SDS011;35622;52.008;5.426;2023-03-01T16:50:06;6.28;;;3.72;;
49730;SDS011;35622;52.008;5.426;2023-03-01T16:52:33;7.47;;;3.85;;
49730;SDS011;35622;52.008;5.426;2023-03-01T16:54:58;7.47;;;4.53;;
49730;SDS011;35622;52.008;5.426;2023-03-01T16:57:24;16.92;;;10.70;;
49730;SDS011;35622;52.008;5.426;2023-03-01T16:59:51;9.93;;;5.60;;
49730;SDS011;35622;52.008;5.426;2023-03-01T17:02:18;25.60;;;12.73;;
49730;SDS011;35622;52.008;5.426;2023-03-01T17:04:44;6.60;;;4.53;;
49730;SDS011;35622;52.008;5.426;2023-03-01T17:07:16;7.18;;;4.55;;
49730;SDS011;35622;52.008;5.426;2023-03-01T17:09:41;7.70;;;4.20;;
49730;SDS011;35622;52.008;5.426;2023-03-01T17:12:07;9.97;;;6.40;;